createdAt,value
2022-10-02T11:02:06.361Z,5.20
2022-10-02T11:03:58.488Z,4.80
2022-10-02T11:05:36.474Z,5.60
2022-10-02T11:07:21.404Z,6.60
2022-10-02T11:09:12.938Z,5.00
2022-10-02T11:11:08.354Z,7.40
2022-10-02T11:12:56.394Z,4.80
2022-10-02T11:14:28.095Z,7.60
2022-10-02T11:16:18.277Z,5.40
2022-10-02T11:18:02.349Z,5.00
2022-10-02T11:19:51.881Z,8.80
2022-10-02T11:21:26.396Z,4.00
2022-10-02T11:23:02.567Z,8.00
2022-10-02T11:24:57.042Z,5.40
2022-10-02T11:26:34.518Z,5.00
2022-10-02T11:28:24.921Z,4.60
2022-10-02T11:30:05.617Z,3.40
2022-10-02T11:31:47.042Z,4.20
2022-10-02T11:33:38.314Z,6.80
2022-10-02T11:35:12.565Z,4.00
2022-10-02T11:36:59.407Z,5.20
2022-10-02T11:38:43.416Z,7.20
2022-10-02T11:40:34.126Z,6.60
2022-10-02T11:42:38.182Z,4.60
2022-10-02T11:44:36.485Z,4.00
2022-10-02T11:46:28.082Z,6.60
2022-10-02T11:48:27.462Z,5.00
2022-10-02T11:50:19.871Z,4.00
2022-10-02T11:52:04.345Z,4.40
2022-10-02T11:54:03.668Z,4.00
2022-10-02T11:56:05.351Z,3.00
2022-10-02T11:57:55.370Z,6.00
2022-10-02T11:59:35.850Z,3.80
2022-10-02T12:01:32.178Z,3.00
2022-10-02T12:03:06.814Z,8.40
2022-10-02T12:04:52.422Z,2.00
2022-10-02T12:06:57.936Z,4.20
2022-10-02T12:08:46.935Z,7.00
2022-10-02T12:10:31.003Z,5.60
2022-10-02T12:12:28.003Z,3.40
2022-10-02T12:14:24.190Z,4.00
2022-10-02T12:16:34.313Z,11.00
2022-10-02T12:18:24.392Z,21.00
2022-10-02T12:20:54.841Z,39.40
2022-10-02T12:22:50.074Z,46.20
2022-10-02T12:24:52.676Z,48.60
2022-10-02T12:27:00.311Z,56.80
2022-10-02T12:28:34.150Z,53.60
2022-10-02T12:30:36.267Z,58.60
2022-10-02T12:32:41.819Z,55.60
2022-10-02T12:34:32.166Z,58.00
2022-10-02T12:36:15.765Z,62.00
2022-10-02T12:38:12.219Z,63.40
2022-10-02T12:40:13.491Z,66.60
2022-10-02T12:42:14.347Z,63.40
2022-10-02T12:44:44.874Z,67.75
2022-10-02T12:46:27.967Z,69.75
2022-10-02T12:48:31.170Z,71.50
2022-10-02T12:50:21.909Z,77.50
2022-10-02T12:52:31.041Z,80.25
2022-10-02T12:54:04.641Z,78.75
2022-10-02T12:56:01.487Z,89.25
2022-10-02T12:58:01.149Z,91.75
2022-10-02T12:59:35.388Z,101.00
2022-10-02T13:01:30.835Z,92.50
2022-10-02T13:03:10.438Z,108.20
2022-10-02T13:04:44.962Z,117.80
2022-10-02T13:06:54.006Z,117.80
2022-10-02T13:08:31.629Z,113.40
2022-10-02T13:10:04.613Z,123.00
2022-10-02T13:11:43.720Z,123.20
2022-10-02T13:13:36.139Z,117.40
2022-10-02T13:15:29.120Z,121.00
2022-10-02T13:17:10.171Z,144.25
2022-10-02T13:19:18.872Z,126.50
2022-10-02T13:21:16.209Z,131.50
2022-10-02T13:23:05.937Z,148.50
2022-10-02T13:24:59.834Z,132.25
2022-10-02T13:26:43.874Z,133.00
2022-10-02T13:28:43.363Z,146.50
2022-10-02T13:30:19.328Z,138.50
2022-10-02T13:32:11.048Z,146.50
2022-10-02T13:33:52.221Z,141.50
2022-10-02T13:35:45.832Z,151.50
2022-10-02T13:37:17.418Z,205.00
2022-10-02T13:38:51.754Z,209.75
2022-10-02T13:40:28.938Z,185.50
2022-10-02T13:42:28.993Z,173.25
2022-10-02T13:47:34.033Z,128.50
2022-10-02T13:49:18.622Z,139.00
2022-10-02T13:51:11.925Z,138.40
2022-10-02T13:52:58.301Z,133.80
2022-10-02T13:54:50.262Z,120.00
2022-10-02T13:56:51.926Z,114.80
2022-10-02T13:58:35.424Z,133.00
2022-10-02T14:00:28.817Z,134.50
2022-10-02T14:02:09.513Z,133.60
2022-10-02T14:04:19.726Z,125.00
2022-10-02T14:05:58.526Z,126.80
2022-10-02T14:07:35.550Z,121.40
2022-10-02T14:09:25.031Z,129.40
2022-10-02T14:11:20.603Z,133.60
2022-10-02T14:13:04.362Z,114.20
2022-10-02T14:14:56.264Z,126.00
2022-10-02T14:16:40.790Z,119.20
2022-10-02T14:18:19.782Z,130.80
2022-10-02T14:20:03.491Z,119.20
2022-10-02T14:21:37.274Z,134.80
2022-10-02T14:23:36.005Z,124.00
2022-10-02T14:25:46.619Z,134.00
2022-10-02T14:27:58.143Z,133.40
2022-10-02T14:30:07.332Z,129.80
2022-10-02T14:32:17.905Z,133.60
2022-10-02T14:34:07.878Z,119.00
2022-10-02T14:36:11.841Z,134.60
2022-10-02T14:37:47.494Z,119.80
2022-10-02T14:39:27.764Z,122.80
2022-10-02T14:41:06.642Z,120.80
2022-10-02T14:42:45.217Z,101.60
2022-10-02T14:44:23.136Z,111.80
2022-10-02T14:45:58.842Z,110.00
2022-10-02T14:47:43.292Z,114.60
2022-10-02T14:49:36.433Z,115.75
2022-10-02T14:51:17.429Z,108.75
2022-10-02T14:53:04.780Z,106.00
2022-10-02T14:54:55.120Z,104.00
2022-10-02T14:57:02.079Z,134.75
2022-10-02T14:58:45.667Z,110.25
2022-10-02T15:00:18.504Z,119.00
2022-10-02T15:02:10.164Z,112.20
2022-10-02T15:04:01.124Z,109.20
2022-10-02T15:05:38.901Z,109.75
2022-10-02T15:07:18.279Z,113.25
2022-10-02T15:09:06.316Z,112.80
2022-10-02T15:10:38.756Z,123.00
2022-10-02T15:12:15.037Z,105.40
2022-10-02T15:13:51.397Z,121.60
2022-10-02T15:15:32.467Z,130.40
2022-10-02T15:17:35.759Z,114.80
2022-10-02T15:19:34.835Z,102.25
2022-10-02T15:21:21.385Z,127.40
2022-10-02T15:23:00.702Z,134.40
2022-10-02T15:24:33.109Z,135.40
2022-10-02T15:26:16.813Z,107.20
2022-10-02T15:28:35.176Z,120.00
2022-10-02T15:30:22.092Z,107.40
2022-10-02T15:32:28.548Z,118.40
2022-10-02T15:34:33.258Z,120.40
2022-10-02T15:36:17.057Z,115.00
2022-10-02T15:38:30.357Z,122.80
2022-10-02T15:40:17.008Z,103.50
2022-10-02T15:41:51.521Z,128.60
2022-10-02T15:43:39.674Z,127.80
2022-10-02T15:45:27.804Z,113.00
2022-10-02T15:47:20.891Z,113.00
2022-10-02T15:49:05.496Z,112.00
2022-10-02T15:50:49.490Z,107.00
2022-10-02T15:52:31.067Z,104.25
2022-10-02T15:54:41.904Z,104.00
2022-10-02T15:56:19.559Z,116.60
2022-10-02T15:58:12.159Z,107.00
2022-10-02T16:00:08.827Z,104.25
2022-10-02T16:02:34.026Z,104.00
2022-10-02T16:04:17.006Z,89.75
2022-10-02T16:06:10.269Z,93.50
2022-10-02T16:07:56.717Z,98.00
2022-10-02T16:09:40.072Z,106.25
2022-10-02T16:11:23.893Z,96.75
2022-10-02T16:13:11.073Z,95.25
2022-10-02T16:15:36.944Z,104.00
2022-10-02T16:17:11.664Z,105.50
2022-10-02T16:18:43.371Z,110.00
2022-10-02T16:20:29.154Z,109.75
2022-10-02T16:22:26.041Z,105.50
2022-10-02T16:24:37.262Z,112.75
2022-10-02T16:30:20.125Z,96.00
2022-10-02T16:34:16.822Z,102.25
2022-10-02T16:36:14.978Z,182.25
2022-10-02T16:37:59.950Z,180.75
2022-10-02T16:39:53.258Z,145.00
2022-10-02T16:41:41.483Z,128.80
2022-10-02T16:43:32.044Z,114.40
2022-10-02T16:45:43.011Z,108.75
2022-10-02T16:47:33.362Z,99.50
2022-10-02T16:49:32.792Z,104.75
2022-10-02T16:51:29.355Z,103.75
2022-10-02T16:53:11.878Z,98.50
2022-10-02T16:55:07.699Z,107.50
2022-10-02T16:56:42.417Z,113.50
2022-10-02T16:58:31.143Z,109.75
2022-10-02T17:00:10.653Z,120.20
2022-10-02T17:02:15.905Z,117.40
2022-10-02T17:04:11.134Z,131.00
2022-10-02T17:05:49.651Z,144.75
2022-10-02T17:07:32.642Z,138.00
2022-10-02T17:09:39.337Z,123.80
2022-10-02T17:11:26.014Z,129.20
2022-10-02T17:13:14.218Z,132.50
2022-10-02T17:15:03.530Z,117.00
2022-10-02T17:16:38.661Z,134.20
2022-10-02T17:18:23.975Z,124.00
2022-10-02T17:20:04.188Z,135.00
2022-10-02T17:21:38.569Z,125.80
2022-10-02T17:23:37.425Z,121.80
2022-10-02T17:25:29.671Z,112.60
2022-10-02T17:27:27.163Z,120.00
2022-10-02T17:29:15.870Z,110.60
2022-10-02T17:31:17.223Z,115.40
2022-10-02T17:33:07.042Z,105.60
2022-10-02T17:34:48.044Z,119.00
2022-10-02T17:36:31.658Z,106.60
2022-10-02T17:38:23.020Z,101.50
2022-10-02T17:40:13.955Z,95.50
2022-10-02T17:42:16.099Z,100.00
2022-10-02T17:44:01.291Z,103.00
2022-10-02T17:46:01.992Z,110.50
2022-10-02T17:47:53.862Z,105.50
2022-10-02T17:49:31.434Z,118.40
2022-10-02T17:51:39.013Z,107.00
2022-10-02T17:53:41.772Z,105.00
2022-10-02T17:55:56.215Z,86.50
2022-10-02T17:57:36.773Z,83.75
2022-10-02T17:59:20.610Z,88.75
2022-10-02T18:01:00.671Z,88.00
2022-10-02T18:02:41.622Z,82.75
2022-10-02T18:04:31.499Z,73.50
2022-10-02T18:06:25.769Z,74.75
2022-10-02T18:08:17.015Z,75.50
2022-10-02T18:09:54.172Z,72.25
2022-10-02T18:11:52.019Z,80.75
2022-10-02T18:13:23.660Z,78.50
2022-10-02T18:15:16.171Z,87.00
2022-10-02T18:16:53.564Z,94.75
2022-10-02T18:18:47.282Z,92.25
2022-10-02T18:20:51.266Z,88.50
2022-10-02T18:22:41.184Z,98.25
2022-10-02T18:24:41.035Z,97.00
2022-10-02T18:26:37.207Z,96.00
2022-10-02T18:28:44.861Z,99.25
2022-10-02T18:30:21.132Z,101.75
2022-10-02T18:31:58.816Z,108.60
2022-10-02T18:34:06.699Z,106.40
2022-10-02T18:36:10.829Z,97.20
2022-10-02T18:38:13.567Z,115.00
2022-10-02T18:40:30.120Z,108.60
2022-10-02T18:42:20.050Z,125.20
2022-10-02T18:43:58.684Z,118.80
2022-10-02T18:46:07.751Z,128.50
2022-10-02T18:47:42.227Z,126.25
2022-10-02T18:49:39.353Z,125.25
2022-10-02T18:51:29.421Z,122.00
2022-10-02T18:53:28.755Z,137.50
2022-10-02T18:55:03.833Z,131.75
2022-10-02T18:57:07.540Z,123.00
2022-10-02T18:58:50.803Z,126.25
2022-10-02T19:00:23.654Z,143.50
2022-10-02T19:02:01.330Z,131.25
2022-10-02T19:03:40.040Z,124.80
2022-10-02T19:05:35.423Z,134.75
2022-10-02T19:07:19.647Z,119.00
2022-10-02T19:09:27.125Z,128.25
2022-10-02T19:10:58.839Z,131.25
2022-10-02T19:12:30.528Z,137.75
2022-10-02T19:14:16.034Z,139.25
2022-10-02T19:15:48.951Z,134.50
2022-10-02T19:17:26.065Z,124.75
2022-10-02T19:19:12.041Z,132.50
2022-10-02T19:20:53.315Z,147.50
2022-10-02T19:22:32.912Z,156.25
2022-10-02T19:24:12.563Z,149.00
2022-10-02T19:25:46.428Z,134.00
2022-10-02T19:27:27.422Z,133.75
2022-10-02T19:29:08.259Z,134.00
2022-10-02T19:30:44.728Z,141.75
2022-10-02T19:32:25.773Z,153.50
2022-10-02T19:34:22.072Z,158.00
2022-10-02T19:35:53.734Z,169.75
2022-10-02T19:37:26.399Z,152.25
2022-10-02T19:39:01.568Z,164.50
2022-10-02T19:40:33.642Z,141.75
2022-10-02T19:42:14.061Z,286.75
2022-10-02T19:43:52.847Z,282.25
2022-10-02T19:45:26.855Z,227.33
2022-10-02T19:46:59.943Z,191.50
2022-10-02T19:48:31.792Z,174.25
2022-10-02T19:50:03.755Z,169.75
2022-10-02T19:51:43.895Z,182.50
2022-10-02T19:53:25.303Z,162.00
2022-10-02T19:54:57.421Z,168.75
2022-10-02T19:56:35.220Z,161.00
2022-10-02T19:58:14.731Z,161.00
2022-10-02T19:59:48.656Z,163.75
2022-10-02T20:01:25.693Z,155.00
2022-10-02T20:02:58.495Z,160.50
2022-10-02T20:04:30.941Z,157.00
2022-10-02T20:06:15.234Z,147.00
2022-10-02T20:07:47.014Z,161.25
2022-10-02T20:09:34.400Z,164.25
2022-10-02T20:11:09.486Z,161.50
2022-10-02T20:12:45.289Z,161.75
2022-10-02T20:14:25.507Z,163.25
2022-10-02T20:16:15.606Z,160.00
2022-10-02T20:17:47.483Z,146.50
2022-10-02T20:19:31.002Z,150.75
2022-10-02T20:21:34.842Z,151.75
2022-10-02T20:23:07.835Z,161.00
2022-10-02T20:24:44.896Z,149.00
2022-10-02T20:26:17.145Z,132.50
2022-10-02T20:28:14.527Z,148.25
2022-10-02T20:29:48.296Z,155.25
2022-10-02T20:31:45.905Z,137.00
2022-10-02T20:33:47.369Z,135.75
2022-10-02T20:35:45.010Z,150.00
2022-10-02T20:37:22.637Z,431.60
2022-10-02T20:39:16.350Z,314.50
2022-10-02T20:40:53.148Z,290.25
2022-10-02T20:42:28.227Z,266.33
2022-10-02T20:44:04.533Z,256.33
2022-10-02T20:45:46.154Z,243.33
2022-10-02T20:47:18.621Z,212.00
2022-10-02T20:49:09.455Z,209.33
2022-10-02T20:51:00.099Z,193.00
2022-10-02T20:52:42.477Z,169.25
2022-10-02T20:54:26.097Z,172.50
2022-10-02T20:56:35.158Z,151.00
2022-10-02T20:58:10.853Z,170.50
2022-10-02T21:00:15.461Z,148.50
2022-10-02T21:02:01.019Z,160.50
2022-10-02T21:03:48.229Z,132.25
2022-10-02T21:05:42.506Z,112.20
2022-10-02T21:07:39.349Z,127.60
2022-10-02T21:09:31.037Z,125.20
2022-10-02T21:11:21.242Z,122.80
2022-10-02T21:12:52.873Z,131.40
2022-10-02T21:14:24.462Z,113.60
2022-10-02T21:16:13.992Z,105.60
2022-10-02T21:18:04.715Z,117.80
2022-10-02T21:20:16.662Z,127.40
2022-10-02T21:22:28.593Z,131.40
2022-10-02T21:24:23.324Z,126.00
2022-10-02T21:26:19.629Z,124.60
2022-10-02T21:28:06.286Z,139.25
2022-10-02T21:29:55.591Z,127.50
2022-10-02T21:31:52.209Z,134.75
2022-10-02T21:33:48.251Z,129.00
2022-10-02T21:35:44.001Z,129.60
2022-10-02T21:37:43.278Z,129.80
2022-10-02T21:39:30.181Z,114.60
2022-10-02T21:41:39.025Z,121.40
2022-10-02T21:43:29.584Z,116.40
2022-10-02T21:45:33.394Z,127.00
2022-10-02T21:47:35.556Z,120.80
2022-10-02T21:49:25.579Z,104.00
2022-10-02T21:51:19.872Z,101.25
2022-10-02T21:53:21.151Z,112.75
2022-10-02T21:55:02.460Z,105.75
2022-10-02T21:56:55.485Z,99.50
2022-10-02T21:58:51.701Z,102.00
2022-10-02T22:00:26.995Z,95.00
2022-10-02T22:02:18.172Z,101.00
2022-10-02T22:04:19.397Z,91.25
2022-10-02T22:06:08.581Z,92.50
2022-10-02T22:08:13.344Z,88.50
2022-10-02T22:09:55.802Z,86.50
2022-10-02T22:11:49.425Z,78.75
2022-10-02T22:13:33.349Z,77.00
2022-10-02T22:15:26.723Z,79.50
2022-10-02T22:17:24.159Z,75.75
2022-10-02T22:19:01.358Z,78.25
2022-10-02T22:20:43.415Z,79.25
2022-10-02T22:22:45.036Z,77.75
2022-10-02T22:24:29.690Z,77.25
2022-10-02T22:26:41.869Z,72.00
2022-10-02T22:28:19.352Z,69.75
2022-10-02T22:29:52.799Z,67.75
2022-10-02T22:32:33.726Z,67.40
2022-10-02T22:34:08.533Z,62.80
